sensor_id;sensor_type;location;lat;lon;timestamp;pressure;altitude;pressure_sealevel;temperature;humidity
3748;BME280;1889;50.058;8.688;2024-03-23T00:54:04;99387.27;;;13.40;63.15
3748;BME280;1889;50.058;8.688;2024-03-23T00:56:34;99383.45;;;13.37;63.32
3748;BME280;1889;50.058;8.688;2024-03-23T00:59:07;99376.23;;;13.41;63.44
3748;BME280;1889;50.058;8.688;2024-03-23T01:01:36;99355.11;;;13.51;63.51
3748;BME280;1889;50.058;8.688;2024-03-23T01:04:09;99355.11;;;13.51;63.51
3748;BME280;1889;50.058;8.688;2024-03-23T01:06:39;99353.87;;;13.59;63.48
3748;BME280;1889;50.058;8.688;2024-03-23T01:09:09;99359.42;;;13.73;63.39
3748;BME280;1889;50.058;8.688;2024-03-23T01:11:40;99359.42;;;13.73;63.39
3748;BME280;1889;50.058;8.688;2024-03-23T01:14:11;99351.61;;;13.81;63.30
3748;BME280;1889;50.058;8.688;2024-03-23T01:16:41;99350.19;;;13.31;64.47
3748;BME280;1889;50.058;8.688;2024-03-23T01:19:11;99346.02;;;13.04;65.53
3748;BME280;1889;50.058;8.688;2024-03-23T01:21:41;99349.42;;;13.06;65.49
3748;BME280;1889;50.058;8.688;2024-03-23T01:24:11;99346.05;;;13.14;65.17
3748;BME280;1889;50.058;8.688;2024-03-23T01:26:41;99346.54;;;13.24;64.93
3748;BME280;1889;50.058;8.688;2024-03-23T01:29:16;99333.12;;;12.96;66.20
3748;BME280;1889;50.058;8.688;2024-03-23T01:31:45;99333.12;;;12.96;66.20
3748;BME280;1889;50.058;8.688;2024-03-23T01:34:20;99320.38;;;13.06;65.93
3748;BME280;1889;50.058;8.688;2024-03-23T01:36:50;99325.08;;;13.31;65.36
3748;BME280;1889;50.058;8.688;2024-03-23T01:39:20;99327.58;;;13.24;65.48
3748;BME280;1889;50.058;8.688;2024-03-23T01:41:53;99323.81;;;13.30;65.24
3748;BME280;1889;50.058;8.688;2024-03-23T01:44:22;99315.39;;;13.42;65.02
3748;BME280;1889;50.058;8.688;2024-03-23T01:46:52;99307.53;;;13.51;65.01
3748;BME280;1889;50.058;8.688;2024-03-23T01:49:22;99308.25;;;13.64;64.75
3748;BME280;1889;50.058;8.688;2024-03-23T01:51:51;99300.84;;;13.72;64.66
3748;BME280;1889;50.058;8.688;2024-03-23T01:54:21;99293.03;;;13.80;64.41
3748;BME280;1889;50.058;8.688;2024-03-23T01:56:51;99280.02;;;13.85;64.18
3748;BME280;1889;50.058;8.688;2024-03-23T01:59:21;99276.23;;;13.81;64.15
3748;BME280;1889;50.058;8.688;2024-03-23T02:01:57;99275.65;;;13.84;64.18
3748;BME280;1889;50.058;8.688;2024-03-23T02:04:28;99272.84;;;13.87;64.33
3748;BME280;1889;50.058;8.688;2024-03-23T02:06:57;99269.03;;;13.84;64.71
3748;BME280;1889;50.058;8.688;2024-03-23T02:09:27;99269.03;;;13.84;64.71
3748;BME280;1889;50.058;8.688;2024-03-23T02:12:03;99262.89;;;13.84;64.39
3748;BME280;1889;50.058;8.688;2024-03-23T02:14:33;99253.34;;;13.90;64.56
3748;BME280;1889;50.058;8.688;2024-03-23T02:17:03;99254.37;;;13.77;64.63
3748;BME280;1889;50.058;8.688;2024-03-23T02:19:33;99254.37;;;13.77;64.63
3748;BME280;1889;50.058;8.688;2024-03-23T02:22:05;99246.27;;;13.90;64.11
3748;BME280;1889;50.058;8.688;2024-03-23T02:24:38;99246.39;;;13.87;64.14
3748;BME280;1889;50.058;8.688;2024-03-23T02:27:10;99248.63;;;13.96;63.81
3748;BME280;1889;50.058;8.688;2024-03-23T02:29:39;99230.67;;;13.94;64.08
3748;BME280;1889;50.058;8.688;2024-03-23T02:32:08;99233.56;;;13.88;64.29
3748;BME280;1889;50.058;8.688;2024-03-23T02:34:38;99225.58;;;13.51;65.30
3748;BME280;1889;50.058;8.688;2024-03-23T02:37:11;99225.58;;;13.51;65.30
3748;BME280;1889;50.058;8.688;2024-03-23T02:39:40;99221.55;;;13.42;65.45
3748;BME280;1889;50.058;8.688;2024-03-23T02:42:10;99220.05;;;13.26;65.55
3748;BME280;1889;50.058;8.688;2024-03-23T02:44:39;99219.35;;;13.11;66.15
3748;BME280;1889;50.058;8.688;2024-03-23T02:47:08;99215.93;;;12.45;68.76
3748;BME280;1889;50.058;8.688;2024-03-23T02:49:38;99215.93;;;12.45;68.76
3748;BME280;1889;50.058;8.688;2024-03-23T02:52:07;99223.75;;;12.37;69.50
3748;BME280;1889;50.058;8.688;2024-03-23T02:54:36;99209.77;;;12.56;68.78
3748;BME280;1889;50.058;8.688;2024-03-23T02:57:06;99210.20;;;12.78;68.06
3748;BME280;1889;50.058;8.688;2024-03-23T02:59:35;99212.77;;;12.89;67.70
3748;BME280;1889;50.058;8.688;2024-03-23T03:02:04;99201.45;;;12.55;68.83
3748;BME280;1889;50.058;8.688;2024-03-23T03:04:34;99190.89;;;12.66;68.81
3748;BME280;1889;50.058;8.688;2024-03-23T03:07:04;99207.45;;;13.01;67.74
3748;BME280;1889;50.058;8.688;2024-03-23T03:09:33;99207.45;;;13.01;67.74
3748;BME280;1889;50.058;8.688;2024-03-23T03:12:03;99198.89;;;13.16;67.19
3748;BME280;1889;50.058;8.688;2024-03-23T03:14:33;99198.10;;;13.24;66.85
3748;BME280;1889;50.058;8.688;2024-03-23T03:17:02;99190.11;;;13.36;66.28
3748;BME280;1889;50.058;8.688;2024-03-23T03:19:32;99192.08;;;13.51;65.65
3748;BME280;1889;50.058;8.688;2024-03-23T03:22:01;99188.34;;;13.55;65.57
3748;BME280;1889;50.058;8.688;2024-03-23T03:24:32;99184.90;;;13.63;65.33
3748;BME280;1889;50.058;8.688;2024-03-23T03:27:01;99178.63;;;13.66;65.29
3748;BME280;1889;50.058;8.688;2024-03-23T03:29:31;99165.97;;;13.54;65.58
3748;BME280;1889;50.058;8.688;2024-03-23T03:32:03;99153.74;;;13.51;65.89
3748;BME280;1889;50.058;8.688;2024-03-23T03:34:32;99165.29;;;13.59;65.93
3748;BME280;1889;50.058;8.688;2024-03-23T03:37:02;99168.67;;;13.13;66.76
3748;BME280;1889;50.058;8.688;2024-03-23T03:39:31;99167.94;;;12.68;68.28
3748;BME280;1889;50.058;8.688;2024-03-23T03:42:00;99171.89;;;12.68;68.92
3748;BME280;1889;50.058;8.688;2024-03-23T03:44:31;99171.89;;;12.68;68.92
3748;BME280;1889;50.058;8.688;2024-03-23T03:47:00;99166.32;;;12.95;68.22
3748;BME280;1889;50.058;8.688;2024-03-23T03:49:30;99165.77;;;13.08;67.88
3748;BME280;1889;50.058;8.688;2024-03-23T03:51:59;99168.85;;;13.19;67.61
3748;BME280;1889;50.058;8.688;2024-03-23T03:54:30;99170.02;;;13.32;67.18
3748;BME280;1889;50.058;8.688;2024-03-23T03:57:00;99174.50;;;13.40;66.90
3748;BME280;1889;50.058;8.688;2024-03-23T03:59:30;99177.27;;;13.47;66.71
3748;BME280;1889;50.058;8.688;2024-03-23T04:01:59;99172.70;;;13.61;66.13
3748;BME280;1889;50.058;8.688;2024-03-23T04:04:28;99173.05;;;13.53;66.39
3748;BME280;1889;50.058;8.688;2024-03-23T04:07:01;99172.19;;;13.53;66.38
3748;BME280;1889;50.058;8.688;2024-03-23T04:09:30;99174.41;;;13.62;66.07
3748;BME280;1889;50.058;8.688;2024-03-23T04:12:00;99183.27;;;13.61;66.22
3748;BME280;1889;50.058;8.688;2024-03-23T04:14:29;99187.25;;;13.51;66.58
3748;BME280;1889;50.058;8.688;2024-03-23T04:16:58;99185.00;;;13.52;66.88
3748;BME280;1889;50.058;8.688;2024-03-23T04:19:28;99189.83;;;13.52;67.02
3748;BME280;1889;50.058;8.688;2024-03-23T04:21:57;99194.27;;;13.31;67.55
3748;BME280;1889;50.058;8.688;2024-03-23T04:24:27;99216.73;;;12.89;69.79
3748;BME280;1889;50.058;8.688;2024-03-23T04:26:57;99207.66;;;12.43;72.17
3748;BME280;1889;50.058;8.688;2024-03-23T04:29:26;99221.05;;;12.05;74.93
3748;BME280;1889;50.058;8.688;2024-03-23T04:31:55;99245.53;;;10.97;78.47
3748;BME280;1889;50.058;8.688;2024-03-23T04:34:26;99245.53;;;10.97;78.47
3748;BME280;1889;50.058;8.688;2024-03-23T04:36:56;99249.58;;;10.27;79.00
3748;BME280;1889;50.058;8.688;2024-03-23T04:39:25;99257.87;;;9.82;80.35
3748;BME280;1889;50.058;8.688;2024-03-23T04:41:54;99238.64;;;9.66;82.61
3748;BME280;1889;50.058;8.688;2024-03-23T04:44:23;99240.91;;;9.48;83.23
3748;BME280;1889;50.058;8.688;2024-03-23T04:46:53;99231.17;;;9.36;83.91
3748;BME280;1889;50.058;8.688;2024-03-23T04:49:22;99238.60;;;9.36;85.38
3748;BME280;1889;50.058;8.688;2024-03-23T04:51:51;99237.56;;;9.09;86.31
3748;BME280;1889;50.058;8.688;2024-03-23T04:54:21;99241.45;;;8.95;86.76
3748;BME280;1889;50.058;8.688;2024-03-23T04:56:50;99253.29;;;8.93;87.51
3748;BME280;1889;50.058;8.688;2024-03-23T04:59:19;99265.28;;;9.03;88.31
3748;BME280;1889;50.058;8.688;2024-03-23T05:01:49;99256.08;;;9.21;87.44
3748;BME280;1889;50.058;8.688;2024-03-23T05:04:18;99266.10;;;9.39;86.16
3748;BME280;1889;50.058;8.688;2024-03-23T05:06:48;99269.80;;;9.32;84.53
3748;BME280;1889;50.058;8.688;2024-03-23T05:09:17;99276.50;;;9.26;83.39
3748;BME280;1889;50.058;8.688;2024-03-23T05:11:46;99269.04;;;9.43;83.19
3748;BME280;1889;50.058;8.688;2024-03-23T05:14:16;99278.22;;;9.60;82.27
3748;BME280;1889;50.058;8.688;2024-03-23T05:16:45;99268.64;;;9.73;81.64
3748;BME280;1889;50.058;8.688;2024-03-23T05:19:14;99274.07;;;9.67;81.30
3748;BME280;1889;50.058;8.688;2024-03-23T05:21:44;99282.17;;;9.43;80.77
3748;BME280;1889;50.058;8.688;2024-03-23T05:24:14;99303.14;;;9.45;81.00
3748;BME280;1889;50.058;8.688;2024-03-23T05:26:43;99324.16;;;9.77;80.76
3748;BME280;1889;50.058;8.688;2024-03-23T05:29:13;99334.02;;;10.00;79.91
3748;BME280;1889;50.058;8.688;2024-03-23T05:31:42;99326.62;;;9.98;79.02
3748;BME280;1889;50.058;8.688;2024-03-23T05:34:11;99322.31;;;9.81;78.99
3748;BME280;1889;50.058;8.688;2024-03-23T05:36:40;99333.00;;;9.73;79.30
3748;BME280;1889;50.058;8.688;2024-03-23T05:39:10;99339.02;;;10.09;79.13
3748;BME280;1889;50.058;8.688;2024-03-23T05:41:39;99340.20;;;9.83;78.14
3748;BME280;1889;50.058;8.688;2024-03-23T05:44:08;99360.31;;;10.00;78.64
3748;BME280;1889;50.058;8.688;2024-03-23T05:46:39;99376.77;;;9.90;77.88
3748;BME280;1889;50.058;8.688;2024-03-23T05:49:08;99383.03;;;9.70;77.00
3748;BME280;1889;50.058;8.688;2024-03-23T05:51:37;99375.05;;;9.73;78.28
3748;BME280;1889;50.058;8.688;2024-03-23T05:54:07;99387.62;;;9.62;77.77
3748;BME280;1889;50.058;8.688;2024-03-23T05:56:36;99384.89;;;9.65;77.28
3748;BME280;1889;50.058;8.688;2024-03-23T05:59:05;99388.59;;;9.58;78.35
3748;BME280;1889;50.058;8.688;2024-03-23T06:01:35;99400.79;;;9.61;77.73
3748;BME280;1889;50.058;8.688;2024-03-23T06:04:04;99422.73;;;9.58;78.04
3748;BME280;1889;50.058;8.688;2024-03-23T06:06:34;99413.98;;;9.57;77.94
3748;BME280;1889;50.058;8.688;2024-03-23T06:09:03;99418.61;;;9.82;76.94
3748;BME280;1889;50.058;8.688;2024-03-23T06:11:33;99424.70;;;10.00;76.02
3748;BME280;1889;50.058;8.688;2024-03-23T06:14:02;99424.98;;;9.89;74.56
3748;BME280;1889;50.058;8.688;2024-03-23T06:16:32;99426.55;;;9.64;75.02
3748;BME280;1889;50.058;8.688;2024-03-23T06:19:01;99424.05;;;9.58;75.37
3748;BME280;1889;50.058;8.688;2024-03-23T06:21:33;99409.69;;;9.73;75.35
3748;BME280;1889;50.058;8.688;2024-03-23T06:24:02;99420.75;;;9.50;74.03
3748;BME280;1889;50.058;8.688;2024-03-23T06:26:32;99423.15;;;9.41;74.67
3748;BME280;1889;50.058;8.688;2024-03-23T06:29:01;99437.55;;;9.25;74.97
3748;BME280;1889;50.058;8.688;2024-03-23T06:31:31;99447.78;;;9.18;75.32
3748;BME280;1889;50.058;8.688;2024-03-23T06:34:01;99437.90;;;9.29;75.56
3748;BME280;1889;50.058;8.688;2024-03-23T06:36:30;99457.78;;;9.57;74.02
3748;BME280;1889;50.058;8.688;2024-03-23T06:38:59;99457.78;;;9.57;74.02
3748;BME280;1889;50.058;8.688;2024-03-23T06:41:29;99486.03;;;9.65;74.06
3748;BME280;1889;50.058;8.688;2024-03-23T06:43:58;99495.56;;;9.88;73.46
3748;BME280;1889;50.058;8.688;2024-03-23T06:46:27;99500.95;;;10.16;72.31
3748;BME280;1889;50.058;8.688;2024-03-23T06:48:57;99497.41;;;10.01;70.72
3748;BME280;1889;50.058;8.688;2024-03-23T06:51:26;99523.83;;;9.97;70.06
3748;BME280;1889;50.058;8.688;2024-03-23T06:53:55;99526.91;;;9.96;70.56
3748;BME280;1889;50.058;8.688;2024-03-23T06:56:24;99533.05;;;10.13;69.17
3748;BME280;1889;50.058;8.688;2024-03-23T06:58:54;99534.45;;;10.27;68.09
3748;BME280;1889;50.058;8.688;2024-03-23T07:01:23;99534.45;;;10.27;68.09
3748;BME280;1889;50.058;8.688;2024-03-23T07:03:52;99529.98;;;9.78;68.83
3748;BME280;1889;50.058;8.688;2024-03-23T07:06:22;99538.91;;;9.71;68.61
3748;BME280;1889;50.058;8.688;2024-03-23T07:08:52;99545.12;;;9.67;68.82
3748;BME280;1889;50.058;8.688;2024-03-23T07:11:23;99536.67;;;9.54;68.39
3748;BME280;1889;50.058;8.688;2024-03-23T07:13:53;99562.73;;;9.63;67.36
3748;BME280;1889;50.058;8.688;2024-03-23T07:16:27;99571.89;;;9.82;67.72
3748;BME280;1889;50.058;8.688;2024-03-23T07:18:56;99570.67;;;9.60;67.66
3748;BME280;1889;50.058;8.688;2024-03-23T07:21:25;99570.73;;;9.57;66.55
3748;BME280;1889;50.058;8.688;2024-03-23T07:23:55;99578.23;;;9.74;67.22
3748;BME280;1889;50.058;8.688;2024-03-23T07:26:24;99593.25;;;9.69;66.17
3748;BME280;1889;50.058;8.688;2024-03-23T07:28:53;99605.02;;;9.09;67.09
3748;BME280;1889;50.058;8.688;2024-03-23T07:31:23;99608.28;;;9.22;67.48
3748;BME280;1889;50.058;8.688;2024-03-23T07:33:53;99619.54;;;9.27;66.83
3748;BME280;1889;50.058;8.688;2024-03-23T07:36:22;99629.98;;;9.51;66.53
3748;BME280;1889;50.058;8.688;2024-03-23T07:38:52;99629.38;;;9.78;66.14
3748;BME280;1889;50.058;8.688;2024-03-23T07:41:21;99645.07;;;9.62;66.51
3748;BME280;1889;50.058;8.688;2024-03-23T07:43:51;99641.96;;;9.43;66.41
3748;BME280;1889;50.058;8.688;2024-03-23T07:46:21;99653.80;;;9.42;65.53
3748;BME280;1889;50.058;8.688;2024-03-23T07:48:50;99666.70;;;9.54;64.84
3748;BME280;1889;50.058;8.688;2024-03-23T07:51:24;99649.13;;;9.35;63.89
3748;BME280;1889;50.058;8.688;2024-03-23T07:53:53;99660.27;;;9.48;65.02
3748;BME280;1889;50.058;8.688;2024-03-23T07:56:23;99670.05;;;9.61;63.81
3748;BME280;1889;50.058;8.688;2024-03-23T07:58:52;99685.26;;;9.66;64.21
3748;BME280;1889;50.058;8.688;2024-03-23T08:01:21;99690.63;;;9.61;64.76
3748;BME280;1889;50.058;8.688;2024-03-23T08:03:51;99685.73;;;10.24;64.04
3748;BME280;1889;50.058;8.688;2024-03-23T08:06:21;99686.20;;;10.59;62.33
3748;BME280;1889;50.058;8.688;2024-03-23T08:08:54;99696.77;;;10.58;61.77
3748;BME280;1889;50.058;8.688;2024-03-23T08:11:28;99699.41;;;10.39;61.07
3748;BME280;1889;50.058;8.688;2024-03-23T08:13:58;99688.12;;;10.35;60.83
3748;BME280;1889;50.058;8.688;2024-03-23T08:16:28;99684.98;;;10.19;61.14
3748;BME280;1889;50.058;8.688;2024-03-23T08:18:59;99686.53;;;10.07;61.19
3748;BME280;1889;50.058;8.688;2024-03-23T08:21:34;99704.58;;;9.84;61.65
3748;BME280;1889;50.058;8.688;2024-03-23T08:24:04;99712.77;;;9.70;62.74
3748;BME280;1889;50.058;8.688;2024-03-23T08:26:34;99716.33;;;9.88;62.21
3748;BME280;1889;50.058;8.688;2024-03-23T08:29:05;99727.81;;;10.24;61.58
3748;BME280;1889;50.058;8.688;2024-03-23T08:31:35;99725.16;;;10.05;61.46
3748;BME280;1889;50.058;8.688;2024-03-23T08:34:05;99733.55;;;10.02;62.22
3748;BME280;1889;50.058;8.688;2024-03-23T08:36:34;99730.70;;;10.12;62.08
3748;BME280;1889;50.058;8.688;2024-03-23T08:39:04;99724.03;;;10.15;61.91
3748;BME280;1889;50.058;8.688;2024-03-23T08:41:34;99724.14;;;10.31;60.76
3748;BME280;1889;50.058;8.688;2024-03-23T08:44:04;99723.20;;;10.34;61.11
3748;BME280;1889;50.058;8.688;2024-03-23T08:46:33;99731.66;;;10.47;60.04
3748;BME280;1889;50.058;8.688;2024-03-23T08:49:04;99724.11;;;10.33;60.45
3748;BME280;1889;50.058;8.688;2024-03-23T08:51:34;99725.24;;;10.41;60.19
3748;BME280;1889;50.058;8.688;2024-03-23T08:54:05;99718.00;;;10.50;60.87
3748;BME280;1889;50.058;8.688;2024-03-23T08:56:34;99722.05;;;10.63;60.03
3748;BME280;1889;50.058;8.688;2024-03-23T08:59:04;99706.65;;;10.66;60.25
3748;BME280;1889;50.058;8.688;2024-03-23T09:01:34;99713.97;;;10.36;60.27
3748;BME280;1889;50.058;8.688;2024-03-23T09:04:05;99708.83;;;10.49;61.29
3748;BME280;1889;50.058;8.688;2024-03-23T09:06:35;99716.56;;;10.73;60.59
3748;BME280;1889;50.058;8.688;2024-03-23T09:09:11;99727.25;;;10.66;59.60
3748;BME280;1889;50.058;8.688;2024-03-23T09:11:41;99723.61;;;11.06;59.53
3748;BME280;1889;50.058;8.688;2024-03-23T09:14:11;99719.34;;;11.18;58.22
3748;BME280;1889;50.058;8.688;2024-03-23T09:16:40;99722.02;;;11.33;57.25
3748;BME280;1889;50.058;8.688;2024-03-23T09:19:12;99726.03;;;11.14;57.25
3748;BME280;1889;50.058;8.688;2024-03-23T09:21:42;99739.16;;;10.99;57.77
3748;BME280;1889;50.058;8.688;2024-03-23T09:24:11;99737.00;;;10.97;57.32
3748;BME280;1889;50.058;8.688;2024-03-23T09:26:41;99735.28;;;11.44;57.49
3748;BME280;1889;50.058;8.688;2024-03-23T09:29:11;99736.70;;;11.89;56.27
3748;BME280;1889;50.058;8.688;2024-03-23T09:31:40;99730.37;;;12.09;55.76
3748;BME280;1889;50.058;8.688;2024-03-23T09:34:17;99730.48;;;12.34;54.81
3748;BME280;1889;50.058;8.688;2024-03-23T09:36:50;99736.65;;;12.19;54.75
3748;BME280;1889;50.058;8.688;2024-03-23T09:39:18;99731.17;;;12.26;54.54
3748;BME280;1889;50.058;8.688;2024-03-23T09:41:54;99738.38;;;12.20;53.98
3748;BME280;1889;50.058;8.688;2024-03-23T09:44:19;99735.46;;;12.30;54.13
3748;BME280;1889;50.058;8.688;2024-03-23T09:46:48;99739.60;;;12.51;54.13
3748;BME280;1889;50.058;8.688;2024-03-23T09:49:23;99739.34;;;12.03;54.30
3748;BME280;1889;50.058;8.688;2024-03-23T09:51:53;99746.24;;;11.93;53.33
3748;BME280;1889;50.058;8.688;2024-03-23T09:54:30;99734.70;;;11.97;52.86
3748;BME280;1889;50.058;8.688;2024-03-23T09:57:02;99742.83;;;12.18;52.24
3748;BME280;1889;50.058;8.688;2024-03-23T09:59:33;99736.09;;;12.51;52.11
3748;BME280;1889;50.058;8.688;2024-03-23T10:02:05;99736.92;;;12.66;51.57
3748;BME280;1889;50.058;8.688;2024-03-23T10:04:41;99748.30;;;12.55;51.28
3748;BME280;1889;50.058;8.688;2024-03-23T10:07:20;99742.48;;;12.72;50.23
3748;BME280;1889;50.058;8.688;2024-03-23T10:10:11;99745.42;;;13.02;49.81
3748;BME280;1889;50.058;8.688;2024-03-23T10:12:45;99743.97;;;13.20;48.65
3748;BME280;1889;50.058;8.688;2024-03-23T10:15:27;99741.06;;;13.39;48.47
3748;BME280;1889;50.058;8.688;2024-03-23T10:18:18;99731.67;;;13.44;48.14
3748;BME280;1889;50.058;8.688;2024-03-23T10:20:52;99734.77;;;13.55;47.27
3748;BME280;1889;50.058;8.688;2024-03-23T10:23:37;99741.73;;;13.06;45.99
3748;BME280;1889;50.058;8.688;2024-03-23T10:26:17;99737.64;;;12.84;46.04
3748;BME280;1889;50.058;8.688;2024-03-23T10:28:58;99729.78;;;12.96;46.77
3748;BME280;1889;50.058;8.688;2024-03-23T10:31:34;99725.09;;;12.91;46.13
3748;BME280;1889;50.058;8.688;2024-03-23T10:34:26;99733.98;;;12.75;46.39
3748;BME280;1889;50.058;8.688;2024-03-23T10:36:56;99727.84;;;13.01;46.29
3748;BME280;1889;50.058;8.688;2024-03-23T10:39:27;99728.24;;;13.02;46.20
3748;BME280;1889;50.058;8.688;2024-03-23T10:42:09;99726.63;;;12.85;47.04
3748;BME280;1889;50.058;8.688;2024-03-23T10:44:39;99726.64;;;12.72;48.50
3748;BME280;1889;50.058;8.688;2024-03-23T10:47:10;99728.13;;;12.66;48.47
3748;BME280;1889;50.058;8.688;2024-03-23T10:49:41;99719.66;;;12.82;48.31
3748;BME280;1889;50.058;8.688;2024-03-23T10:52:10;99716.95;;;13.23;48.08
3748;BME280;1889;50.058;8.688;2024-03-23T10:54:43;99720.42;;;13.12;47.29
3748;BME280;1889;50.058;8.688;2024-03-23T10:57:25;99725.61;;;13.28;46.73
3748;BME280;1889;50.058;8.688;2024-03-23T10:59:54;99727.12;;;13.22;47.21
3748;BME280;1889;50.058;8.688;2024-03-23T11:02:28;99730.53;;;13.13;46.87
3748;BME280;1889;50.058;8.688;2024-03-23T11:05:50;99766.86;;;12.52;49.91
3748;BME280;1889;50.058;8.688;2024-03-23T11:07:49;99780.47;;;11.79;56.41
3748;BME280;1889;50.058;8.688;2024-03-23T11:10:32;99800.04;;;11.03;59.45
3748;BME280;1889;50.058;8.688;2024-03-23T11:13:23;99813.06;;;9.70;62.46
3748;BME280;1889;50.058;8.688;2024-03-23T11:18:40;99776.65;;;9.50;64.16
3748;BME280;1889;50.058;8.688;2024-03-23T11:21:11;99777.92;;;9.53;62.85
3748;BME280;1889;50.058;8.688;2024-03-23T11:23:46;99769.76;;;9.67;62.75
3748;BME280;1889;50.058;8.688;2024-03-23T11:26:26;99788.66;;;9.65;60.83
3748;BME280;1889;50.058;8.688;2024-03-23T11:29:11;99780.22;;;9.70;60.17
3748;BME280;1889;50.058;8.688;2024-03-23T11:31:50;99767.32;;;9.80;59.10
3748;BME280;1889;50.058;8.688;2024-03-23T11:34:20;99766.84;;;10.03;58.86
3748;BME280;1889;50.058;8.688;2024-03-23T11:37:18;99766.81;;;10.25;58.01
3748;BME280;1889;50.058;8.688;2024-03-23T11:39:51;99767.87;;;10.55;57.81
3748;BME280;1889;50.058;8.688;2024-03-23T11:42:22;99763.35;;;10.61;56.61
3748;BME280;1889;50.058;8.688;2024-03-23T11:44:52;99747.03;;;10.83;56.69
3748;BME280;1889;50.058;8.688;2024-03-23T11:47:21;99752.47;;;11.11;55.66
3748;BME280;1889;50.058;8.688;2024-03-23T11:49:51;99740.69;;;11.07;55.67
3748;BME280;1889;50.058;8.688;2024-03-23T11:52:20;99746.38;;;11.08;55.24
3748;BME280;1889;50.058;8.688;2024-03-23T11:55:03;99737.23;;;11.22;55.33
3748;BME280;1889;50.058;8.688;2024-03-23T11:57:33;99731.71;;;11.47;55.08
3748;BME280;1889;50.058;8.688;2024-03-23T12:00:19;99725.30;;;11.72;54.23
3748;BME280;1889;50.058;8.688;2024-03-23T12:02:35;99723.03;;;11.91;54.29
3748;BME280;1889;50.058;8.688;2024-03-23T12:05:15;99707.10;;;11.79;53.45
3748;BME280;1889;50.058;8.688;2024-03-23T12:07:44;99707.62;;;11.92;53.88
3748;BME280;1889;50.058;8.688;2024-03-23T12:10:15;99701.64;;;12.14;52.72
3748;BME280;1889;50.058;8.688;2024-03-23T12:12:46;99693.20;;;12.16;52.02
3748;BME280;1889;50.058;8.688;2024-03-23T12:15:17;99683.23;;;12.26;50.96
3748;BME280;1889;50.058;8.688;2024-03-23T12:17:46;99674.94;;;12.38;50.41
3748;BME280;1889;50.058;8.688;2024-03-23T12:20:16;99673.05;;;12.42;50.21
3748;BME280;1889;50.058;8.688;2024-03-23T12:22:45;99675.09;;;12.47;50.07
3748;BME280;1889;50.058;8.688;2024-03-23T12:25:15;99665.95;;;12.70;48.70
3748;BME280;1889;50.058;8.688;2024-03-23T12:27:44;99660.09;;;12.74;46.74
3748;BME280;1889;50.058;8.688;2024-03-23T12:30:13;99651.77;;;12.86;46.68
3748;BME280;1889;50.058;8.688;2024-03-23T12:32:43;99651.91;;;12.94;46.15
3748;BME280;1889;50.058;8.688;2024-03-23T12:35:13;99651.55;;;12.92;45.45
3748;BME280;1889;50.058;8.688;2024-03-23T12:37:43;99659.83;;;12.94;45.82
3748;BME280;1889;50.058;8.688;2024-03-23T12:40:13;99656.00;;;13.16;44.88
3748;BME280;1889;50.058;8.688;2024-03-23T12:42:42;99653.94;;;13.24;44.33
3748;BME280;1889;50.058;8.688;2024-03-23T12:45:11;99654.85;;;13.23;44.89
3748;BME280;1889;50.058;8.688;2024-03-23T12:47:41;99633.13;;;13.15;44.53
3748;BME280;1889;50.058;8.688;2024-03-23T12:50:10;99632.50;;;12.95;44.87
3748;BME280;1889;50.058;8.688;2024-03-23T12:52:39;99634.12;;;13.24;44.56
3748;BME280;1889;50.058;8.688;2024-03-23T12:55:09;99624.35;;;13.38;43.78
3748;BME280;1889;50.058;8.688;2024-03-23T12:57:39;99625.38;;;13.22;43.80
3748;BME280;1889;50.058;8.688;2024-03-23T13:00:10;99618.98;;;13.29;43.29
3748;BME280;1889;50.058;8.688;2024-03-23T13:02:44;99617.48;;;13.46;42.73
3748;BME280;1889;50.058;8.688;2024-03-23T13:05:14;99623.86;;;13.52;41.40
3748;BME280;1889;50.058;8.688;2024-03-23T13:07:43;99610.86;;;13.69;41.73
3748;BME280;1889;50.058;8.688;2024-03-23T13:10:12;99621.91;;;13.79;41.59
3748;BME280;1889;50.058;8.688;2024-03-23T13:12:42;99624.51;;;13.80;40.92
3748;BME280;1889;50.058;8.688;2024-03-23T13:15:12;99612.64;;;13.68;40.54
3748;BME280;1889;50.058;8.688;2024-03-23T13:17:43;99638.83;;;13.63;40.69
3748;BME280;1889;50.058;8.688;2024-03-23T13:20:12;99675.36;;;13.04;43.16
3748;BME280;1889;50.058;8.688;2024-03-23T13:22:43;99688.63;;;12.49;46.35
3748;BME280;1889;50.058;8.688;2024-03-23T13:25:13;99718.77;;;12.29;49.26
3748;BME280;1889;50.058;8.688;2024-03-23T13:27:42;99723.34;;;11.80;54.93
3748;BME280;1889;50.058;8.688;2024-03-23T13:30:12;99759.35;;;10.98;61.91
3748;BME280;1889;50.058;8.688;2024-03-23T13:32:48;99761.35;;;10.53;66.37
3748;BME280;1889;50.058;8.688;2024-03-23T13:35:29;99754.25;;;10.18;68.48
3748;BME280;1889;50.058;8.688;2024-03-23T13:38:07;99754.47;;;9.87;71.29
3748;BME280;1889;50.058;8.688;2024-03-23T13:40:37;99754.20;;;9.10;74.18
3748;BME280;1889;50.058;8.688;2024-03-23T13:43:07;99751.82;;;9.44;77.07
3748;BME280;1889;50.058;8.688;2024-03-23T13:45:36;99747.44;;;9.44;77.97
3748;BME280;1889;50.058;8.688;2024-03-23T13:48:06;99746.00;;;9.50;78.26
3748;BME280;1889;50.058;8.688;2024-03-23T13:50:36;99747.11;;;9.82;78.06
3748;BME280;1889;50.058;8.688;2024-03-23T13:53:06;99749.63;;;9.88;76.17
3748;BME280;1889;50.058;8.688;2024-03-23T13:55:45;99743.15;;;10.04;76.62
3748;BME280;1889;50.058;8.688;2024-03-23T13:58:08;99742.70;;;10.05;77.76
3748;BME280;1889;50.058;8.688;2024-03-23T14:00:39;99731.52;;;10.35;77.80
3748;BME280;1889;50.058;8.688;2024-03-23T14:03:22;99733.10;;;10.42;75.18
3748;BME280;1889;50.058;8.688;2024-03-23T14:05:52;99731.65;;;10.66;73.21
3748;BME280;1889;50.058;8.688;2024-03-23T14:08:25;99719.58;;;10.75;72.25
3748;BME280;1889;50.058;8.688;2024-03-23T14:11:00;99711.09;;;11.14;71.33
3748;BME280;1889;50.058;8.688;2024-03-23T14:13:30;99713.86;;;11.42;69.78
3748;BME280;1889;50.058;8.688;2024-03-23T14:16:00;99709.11;;;11.69;68.57
3748;BME280;1889;50.058;8.688;2024-03-23T14:18:30;99706.80;;;11.73;66.78
3748;BME280;1889;50.058;8.688;2024-03-23T14:21:00;99714.97;;;11.95;65.34
3748;BME280;1889;50.058;8.688;2024-03-23T14:23:31;99721.19;;;12.22;64.75
3748;BME280;1889;50.058;8.688;2024-03-23T14:26:03;99706.23;;;12.36;62.21
3748;BME280;1889;50.058;8.688;2024-03-23T14:28:34;99689.91;;;12.51;59.45
3748;BME280;1889;50.058;8.688;2024-03-23T14:31:05;99682.25;;;12.70;59.14
3748;BME280;1889;50.058;8.688;2024-03-23T14:33:39;99674.67;;;12.85;58.10
3748;BME280;1889;50.058;8.688;2024-03-23T14:36:16;99674.67;;;12.85;58.10
3748;BME280;1889;50.058;8.688;2024-03-23T14:38:49;99683.31;;;12.38;59.17
3748;BME280;1889;50.058;8.688;2024-03-23T14:41:24;99667.83;;;12.53;59.32